Airport View

Enter AWOS ICAO identifier for current METAR.

ex. KFNL

K6B9 262330Z AUTO 13007KT 110V170 10SM OVC065 06/05 A2970 RMK AO2

26 Feb 2020 23:33

Frequency: 120.125

Phone: 315-685-5790

Other Area AWOS: KSYR - KN03 - KITH - KFZY

TAF KSYR 261743Z 2618/2718 09008KT P6SM -DZ OVC025 FM262200 09008KT 4SM -RA BR OVC015 FM270400 11012G20KT 4SM -RA BR OVC012 WS020/14040KT FM270800 22012G20KT 2SM RA BR BKN008 OVC012 FM271000 23015G25KT 2SM RASN BR BKN008 OVC012 FM271200 24020G30KT 1SM -SN BR OVC008 FM271400 25020G35KT 2SM -SN BR OVC012